Aérodrome :
LOGIN :

S'inscrire | Disclaimer

   EN    FR    IT 

 










Légende :    VFR   VFR Marginal   IFR   IFR Intensif   IFR Très Intensif
Visi : 
Plafond : 
>= 8 km
>= 3000ft
5 à 8 km
1000 à 3000 ft
1500m à 5 km
500 à 1000 ft
800 à 1500m
200 à 500 ft
< 800m
< 200 ft
Symboles :   Orages  Brouillard  Fortes neiges  Fortes précipitations  Vent > 20 kt
SIGMETs :   Divers  Orages  Givrage  Turbulence  Onde Orograph.  Cendres Volcan.







- Altitude de l'aérodrome : 489 ft
- Code IATA : GDN


EPGD - Gdansk

DERNIER METAR :
  • 220600Z 31009KT 9000 SCT005 OVC006 07/06 Q1030

METARs EXPIRÉS :
  • 220530Z 31009KT 7000 SCT004 OVC006 07/06 Q1030
  • 220500Z 32011KT 5000 BR OVC003 07/06 Q1030
  • 220430Z 32012KT 6000 OVC004 07/06 Q1029
  • 220400Z 31013KT 8000 BKN004 OVC006 07/07 Q1029
  • 220330Z 31012KT 8000 OVC004 07/07 Q1029

TAF TAF EPGD
Valide du 22 à 06h jusqu'au 23 à 06h UTC


220530Z 2206/2306 25012KT 4500 BR BKN002 OVC006
BECMG 2206/2208 02010KT 9999 BKN014
BECMG 2208/2210 08006KT CAVOK
BECMG 2219/2221 18010KT
BECMG 2302/2304 3000 BR BKN005
Pas de NOTAMs connus pour ce terrain.



MET'MAP, la Météo Aéronautique d'un coup d'oeil ! - Copyright ORBIFLY Décembre 2007 - Disclaimer

ORBIFLY MET'MAP TEAM :

Programmation & Développement : Alexandra Zaïnal
Conception & Développement : Baudouin d'Aumeries
Co-Programmation & Développement : Marc-Olivier Méhu
Soutien technique & logistique : Manuel Goepfert

Contact : metmap@orbifly.com




SOURCES & CREDITS :

   NOAA